Time;durP1;ratioP1;P1;durP2;ratioP2;P2;SDS_P1;SDS_P2;PMS_P1;PMS_P2;Temp;Humidity;BMP_temperature;BMP_pressure;BME280_temperature;BME280_humidity;BME280_pressure;Samples;Min_cycle;Max_cycle;Signal;HPM_P1;HPM_P2
2021/05/08 00:02:03;;;;;;;;;;;;;;;0.86;100.00;98621.66;5093456;28;20025;-75
2021/05/08 00:04:30;;;;;;;;;;;;;;;0.79;100.00;98624.28;5093135;28;19920;-75
2021/05/08 00:06:58;;;;;;;;;;;;;;;0.70;100.00;98618.25;5093240;28;19920;-75
2021/05/08 00:09:25;;;;;;;;;;;;;;;0.82;100.00;98618.06;5095939;28;19927;-75
2021/05/08 00:11:55;;;;;;;;;;;;;;;0.79;100.00;98610.53;5096798;28;19923;-75
2021/05/08 00:14:25;;;;;;;;;;;;;;;0.76;100.00;98605.78;5081395;28;19920;-75
2021/05/08 00:16:54;;;;;;;;;;;;;;;0.70;100.00;98601.75;5088472;28;19951;-75
2021/05/08 00:19:22;;;;;;;;;;;;;;;0.65;100.00;98595.78;5109028;28;19971;-75
2021/05/08 00:21:48;;;;;;;;;;;;;;;0.67;100.00;98599.75;5096258;28;19927;-75
2021/05/08 00:24:15;;;;;;;;;;;;;;;0.68;100.00;98592.31;5096892;28;19920;-75
2021/05/08 00:26:42;;;;;;;;;;;;;;;0.66;100.00;98581.69;5096568;28;20551;-75
2021/05/08 00:29:09;;;;;;;;;;;;;;;0.66;100.00;98576.19;5096675;28;20038;-75
2021/05/08 00:31:36;;;;;;;;;;;;;;;0.74;100.00;98571.56;5081124;28;19924;-75
2021/05/08 00:34:02;;;;;;;;;;;;;;;0.74;100.00;98566.88;5096470;28;19919;-75
2021/05/08 00:36:29;;;;;;;;;;;;;;;0.77;100.00;98563.38;5096497;28;19924;-75
2021/05/08 00:38:56;;;;;;;;;;;;;;;0.78;100.00;98550.41;5075382;28;19921;-76
2021/05/08 00:41:22;;;;;;;;;;;;;;;0.80;100.00;98553.59;5087994;28;19927;-75
2021/05/08 00:43:59;;;;;;;;;;;;;;;0.86;100.00;98550.16;5096353;28;19924;-75
2021/05/08 00:46:27;;;;;;;;;;;;;;;0.87;100.00;98546.22;5094909;28;19924;-75
2021/05/08 00:48:57;;;;;;;;;;;;;;;0.78;100.00;98545.72;5076595;28;19921;-75
2021/05/08 00:51:24;;;;;;;;;;;;;;;0.78;100.00;98539.41;5074877;28;20003;-75
2021/05/08 00:53:52;;;;;;;;;;;;;;;0.77;100.00;98541.38;5092690;28;20378;-75
2021/05/08 00:56:19;;;;;;;;;;;;;;;0.83;100.00;98537.16;5096017;28;19920;-75
2021/05/08 00:58:47;;;;;;;;;;;;;;;0.90;100.00;98528.97;5080646;28;19927;-75
2021/05/08 01:01:15;;;;;;;;;;;;;;;0.84;100.00;98522.22;5104622;28;19921;-75
2021/05/08 01:03:45;;;;;;;;;;;;;;;0.80;100.00;98510.38;5074309;28;20007;-75
2021/05/08 01:06:13;;;;;;;;;;;;;;;0.69;100.00;98514.13;5074631;28;20278;-75
2021/05/08 01:08:41;;;;;;;;;;;;;;;0.79;100.00;98508.00;5088402;28;19924;-76
2021/05/08 01:11:08;;;;;;;;;;;;;;;0.83;100.00;98504.16;5095803;28;19920;-75
2021/05/08 01:13:35;;;;;;;;;;;;;;;0.96;100.00;98493.69;5095940;28;20008;-75
2021/05/08 01:16:02;;;;;;;;;;;;;;;0.91;100.00;98483.78;5095501;28;19931;-75
2021/05/08 01:18:31;;;;;;;;;;;;;;;0.93;100.00;98470.47;5095250;28;19992;-75
2021/05/08 01:20:59;;;;;;;;;;;;;;;0.68;100.00;98469.34;5095599;28;19943;-75
2021/05/08 01:23:27;;;;;;;;;;;;;;;0.67;100.00;98454.03;5119910;27;20340;-75
2021/05/08 01:25:54;;;;;;;;;;;;;;;0.83;100.00;98454.63;5074192;28;20019;-75
2021/05/08 01:28:21;;;;;;;;;;;;;;;0.92;100.00;98452.41;5095504;28;20006;-75
2021/05/08 01:30:48;;;;;;;;;;;;;;;1.06;100.00;98449.78;5095478;28;19951;-75
2021/05/08 01:33:16;;;;;;;;;;;;;;;1.09;100.00;98438.03;5095083;28;19934;-75
2021/05/08 01:35:43;;;;;;;;;;;;;;;1.03;100.00;98436.00;5087030;28;19921;-75
2021/05/08 01:38:10;;;;;;;;;;;;;;;0.94;100.00;98433.53;5074010;28;19927;-75
2021/05/08 01:40:38;;;;;;;;;;;;;;;0.97;100.00;98427.28;5094622;28;19920;-75
2021/05/08 01:43:10;;;;;;;;;;;;;;;0.97;100.00;98426.50;5081390;28;19927;-76
2021/05/08 01:45:38;;;;;;;;;;;;;;;1.09;100.00;98429.00;5087864;28;20409;-75
2021/05/08 01:48:09;;;;;;;;;;;;;;;1.11;100.00;98421.94;5073788;28;19920;-76
2021/05/08 01:50:36;;;;;;;;;;;;;;;1.23;100.00;98418.13;5107106;28;19920;-75
2021/05/08 01:53:02;;;;;;;;;;;;;;;1.33;100.00;98418.25;5073557;28;19974;-75
2021/05/08 01:55:30;;;;;;;;;;;;;;;1.51;100.00;98408.22;5090849;28;19920;-76
2021/05/08 01:58:03;;;;;;;;;;;;;;;1.52;100.00;98398.78;5100478;28;20427;-76
2021/05/08 02:00:38;;;;;;;;;;;;;;;1.59;100.00;98404.34;5075034;28;19985;-76
2021/05/08 02:03:04;;;;;;;;;;;;;;;1.62;100.00;98392.56;5119203;27;19920;-76
2021/05/08 02:05:38;;;;;;;;;;;;;;;1.76;100.00;98384.41;5088781;28;19920;-75
2021/05/08 02:08:10;;;;;;;;;;;;;;;1.75;100.00;98369.06;5094720;28;19924;-75
2021/05/08 02:10:40;;;;;;;;;;;;;;;1.72;100.00;98378.09;5094474;28;20291;-75
2021/05/08 02:13:07;;;;;;;;;;;;;;;1.72;100.00;98369.84;5094559;28;19938;-76
2021/05/08 02:15:35;;;;;;;;;;;;;;;1.70;100.00;98363.91;5079734;28;19956;-76
2021/05/08 02:18:05;;;;;;;;;;;;;;;1.72;100.00;98361.56;5072852;28;19921;-76
2021/05/08 02:20:33;;;;;;;;;;;;;;;1.94;100.00;98364.47;5106707;28;19932;-75
2021/05/08 02:23:02;;;;;;;;;;;;;;;1.94;100.00;98354.22;5072786;28;20359;-75
2021/05/08 02:25:31;;;;;;;;;;;;;;;1.96;100.00;98345.59;5073007;28;19921;-75
2021/05/08 02:27:58;;;;;;;;;;;;;;;2.00;100.00;98349.16;5091551;28;20061;-75
2021/05/08 02:30:26;;;;;;;;;;;;;;;1.91;100.00;98343.97;5086793;28;20375;-76
2021/05/08 02:32:53;;;;;;;;;;;;;;;2.02;100.00;98335.78;5072713;28;19931;-75
2021/05/08 02:35:20;;;;;;;;;;;;;;;2.02;100.00;98333.03;5106257;28;19927;-76
2021/05/08 02:37:58;;;;;;;;;;;;;;;1.68;100.00;98319.44;5072464;28;19927;-76
2021/05/08 02:40:28;;;;;;;;;;;;;;;1.80;100.00;98321.88;5052890;28;20433;-76
2021/05/08 02:42:57;;;;;;;;;;;;;;;1.88;100.00;98321.94;5075254;28;19924;-76
2021/05/08 02:45:24;;;;;;;;;;;;;;;1.99;100.00;98318.06;5078278;28;19948;-75
2021/05/08 02:47:53;;;;;;;;;;;;;;;2.02;100.00;98317.28;5093943;28;20022;-76
2021/05/08 02:50:23;;;;;;;;;;;;;;;2.13;100.00;98314.59;5093659;28;19924;-76
2021/05/08 02:52:55;;;;;;;;;;;;;;;2.12;100.00;98318.53;5089234;28;20498;-76
2021/05/08 02:55:22;;;;;;;;;;;;;;;2.28;100.00;98307.97;5072942;28;19924;-76
2021/05/08 02:57:50;;;;;;;;;;;;;;;2.28;100.00;98305.22;5084865;28;19920;-76
2021/05/08 03:00:17;;;;;;;;;;;;;;;2.30;100.00;98292.66;5072165;28;19959;-76
2021/05/08 03:02:45;;;;;;;;;;;;;;;2.42;100.00;98291.50;5071553;28;19920;-76
2021/05/08 03:05:13;;;;;;;;;;;;;;;2.60;100.00;98289.59;5071394;28;19921;-76
2021/05/08 03:07:41;;;;;;;;;;;;;;;2.50;100.00;98288.38;5071885;28;20013;-76
2021/05/08 03:10:10;;;;;;;;;;;;;;;2.52;100.00;98279.72;5072307;28;19920;-76
2021/05/08 03:12:36;;;;;;;;;;;;;;;2.51;100.00;98278.94;5072145;28;19924;-76
2021/05/08 03:15:04;;;;;;;;;;;;;;;2.62;100.00;98270.69;5072938;28;19920;-76
2021/05/08 03:17:31;;;;;;;;;;;;;;;2.46;100.00;98275.75;5072156;28;20268;-76
2021/05/08 03:19:59;;;;;;;;;;;;;;;2.58;100.00;98261.59;5073259;28;20026;-76
2021/05/08 03:22:26;;;;;;;;;;;;;;;2.32;100.00;98259.94;5058187;28;19921;-76
2021/05/08 03:24:54;;;;;;;;;;;;;;;2.31;100.00;98257.59;5071989;28;19926;-76
2021/05/08 03:27:21;;;;;;;;;;;;;;;2.41;100.00;98246.59;5073105;28;19924;-76
2021/05/08 03:29:50;;;;;;;;;;;;;;;2.42;100.00;98244.63;5105198;28;20007;-76
2021/05/08 03:32:17;;;;;;;;;;;;;;;2.60;100.00;98237.19;5073176;28;20009;-76
2021/05/08 03:34:45;;;;;;;;;;;;;;;2.61;100.00;98227.72;5072074;28;20039;-76
2021/05/08 03:37:15;;;;;;;;;;;;;;;2.57;100.00;98213.16;5071705;28;19954;-76
2021/05/08 03:39:43;;;;;;;;;;;;;;;2.68;100.00;98211.22;5105621;28;19956;-76
2021/05/08 03:42:10;;;;;;;;;;;;;;;2.61;100.00;98217.50;5072611;28;19920;-76
2021/05/08 03:44:36;;;;;;;;;;;;;;;2.82;100.00;98197.41;5063389;28;20018;-76
2021/05/08 03:47:03;;;;;;;;;;;;;;;2.76;100.00;98186.00;5077115;28;19920;-76
2021/05/08 03:49:30;;;;;;;;;;;;;;;2.86;100.00;98187.19;5066259;28;19920;-76
2021/05/08 03:52:02;;;;;;;;;;;;;;;3.02;100.00;98185.59;5039349;28;19920;-76
2021/05/08 03:54:29;;;;;;;;;;;;;;;3.17;100.00;98172.56;5039354;28;19983;-76
2021/05/08 03:56:57;;;;;;;;;;;;;;;3.31;100.00;98183.63;5056546;28;19924;-76
2021/05/08 03:59:24;;;;;;;;;;;;;;;3.40;100.00;98181.22;5072244;28;19920;-76
2021/05/08 04:01:51;;;;;;;;;;;;;;;3.51;100.00;98170.97;5039035;28;19920;-76
2021/05/08 04:04:17;;;;;;;;;;;;;;;3.67;100.00;98163.00;5056595;28;19920;-76
2021/05/08 04:06:44;;;;;;;;;;;;;;;3.68;100.00;98172.88;5056772;28;19966;-76
2021/05/08 04:09:11;;;;;;;;;;;;;;;3.83;100.00;98163.38;5071651;28;19920;-76
2021/05/08 04:11:38;;;;;;;;;;;;;;;3.87;100.00;98150.31;5038367;28;19921;-76
2021/05/08 04:14:05;;;;;;;;;;;;;;;3.97;100.00;98138.41;5056626;28;19925;-76
2021/05/08 04:16:31;;;;;;;;;;;;;;;4.23;100.00;98129.59;5056260;28;20364;-76
2021/05/08 04:18:59;;;;;;;;;;;;;;;4.22;100.00;98128.03;5056331;28;19967;-76
2021/05/08 04:21:26;;;;;;;;;;;;;;;4.35;100.00;98117.25;5056187;28;20003;-76
2021/05/08 04:23:52;;;;;;;;;;;;;;;4.49;100.00;98125.47;5056259;28;19925;-76
2021/05/08 04:26:19;;;;;;;;;;;;;;;4.73;100.00;98117.00;5055982;28;19942;-76
2021/05/08 04:28:46;;;;;;;;;;;;;;;4.92;100.00;98099.06;5071506;28;20400;-75
2021/05/08 04:31:12;;;;;;;;;;;;;;;4.99;100.00;98105.31;5038620;28;19924;-76
2021/05/08 04:33:39;;;;;;;;;;;;;;;5.10;100.00;98102.44;5038209;28;19935;-76
2021/05/08 04:36:06;;;;;;;;;;;;;;;4.98;100.00;98092.66;5056040;28;19928;-76
2021/05/08 04:38:33;;;;;;;;;;;;;;;5.07;100.00;98076.34;5055979;28;19960;-75
2021/05/08 04:40:59;;;;;;;;;;;;;;;4.99;100.00;98077.63;5037984;28;19928;-76
2021/05/08 04:43:26;;;;;;;;;;;;;;;4.89;100.00;98058.34;5038322;28;19927;-76
2021/05/08 04:45:53;;;;;;;;;;;;;;;4.93;100.00;98050.78;5055871;28;20504;-76
2021/05/08 04:48:21;;;;;;;;;;;;;;;4.89;100.00;98039.75;5056542;28;19921;-76
2021/05/08 04:50:48;;;;;;;;;;;;;;;4.75;100.00;98039.09;5075855;28;19920;-76
2021/05/08 04:53:14;;;;;;;;;;;;;;;4.72;100.00;98024.13;5075620;28;19920;-76
2021/05/08 04:55:41;;;;;;;;;;;;;;;4.74;100.00;98024.47;5074874;28;19935;-77
2021/05/08 04:58:07;;;;;;;;;;;;;;;4.66;100.00;98016.66;5075860;28;19927;-76
2021/05/08 05:00:34;;;;;;;;;;;;;;;4.63;100.00;98007.22;5075641;28;20378;-76
2021/05/08 05:03:00;;;;;;;;;;;;;;;4.60;100.00;98010.78;5075533;28;19928;-77
2021/05/08 05:05:27;;;;;;;;;;;;;;;4.54;100.00;98004.13;5075768;28;20348;-76
2021/05/08 05:07:54;;;;;;;;;;;;;;;4.48;100.00;97997.47;5075452;28;19931;-77
2021/05/08 05:10:21;;;;;;;;;;;;;;;4.49;100.00;97990.72;5075615;28;19924;-77
2021/05/08 05:12:48;;;;;;;;;;;;;;;4.49;100.00;97982.44;5075693;28;19958;-77
2021/05/08 05:15:19;;;;;;;;;;;;;;;4.51;100.00;97982.81;5075551;28;19927;-76
2021/05/08 05:17:46;;;;;;;;;;;;;;;4.55;100.00;97986.31;5090728;28;19959;-76
2021/05/08 05:20:13;;;;;;;;;;;;;;;4.43;100.00;97986.84;5107862;28;20001;-76
2021/05/08 05:22:40;;;;;;;;;;;;;;;4.35;100.00;97971.50;5075729;28;19921;-77
2021/05/08 05:25:07;;;;;;;;;;;;;;;4.41;100.00;97958.78;5075276;28;19920;-76
2021/05/08 05:27:34;;;;;;;;;;;;;;;4.39;100.00;97963.94;5075590;28;19993;-77
2021/05/08 05:30:00;;;;;;;;;;;;;;;4.41;100.00;97944.97;5075376;28;20393;-76
2021/05/08 05:32:27;;;;;;;;;;;;;;;4.42;100.00;97945.75;5075339;28;20279;-76
2021/05/08 05:34:54;;;;;;;;;;;;;;;4.33;100.00;97946.22;5075261;28;20385;-77
2021/05/08 05:37:21;;;;;;;;;;;;;;;4.26;100.00;97940.75;5074197;28;20424;-76
2021/05/08 05:39:48;;;;;;;;;;;;;;;4.25;100.00;97927.34;5075185;28;19921;-77
2021/05/08 05:42:14;;;;;;;;;;;;;;;4.21;100.00;97930.13;5057343;28;19920;-77
2021/05/08 05:44:41;;;;;;;;;;;;;;;4.21;100.00;97916.31;5075042;28;19963;-75
2021/05/08 05:47:20;;;;;;;;;;;;;;;4.21;100.00;97905.25;5074785;28;20358;-76
2021/05/08 05:49:52;;;;;;;;;;;;;;;4.21;100.00;97902.47;5086705;28;19965;-76
2021/05/08 05:52:19;;;;;;;;;;;;;;;4.23;100.00;97908.41;5091036;28;19929;-76
2021/05/08 05:54:46;;;;;;;;;;;;;;;4.22;100.00;97895.00;5083269;28;19924;-76
2021/05/08 05:57:12;;;;;;;;;;;;;;;4.15;100.00;97887.53;5073527;28;20402;-76
2021/05/08 05:59:39;;;;;;;;;;;;;;;4.13;100.00;97897.44;5072235;28;19924;-76
2021/05/08 06:02:06;;;;;;;;;;;;;;;4.06;100.00;97890.00;5072453;28;20302;-76
2021/05/08 06:04:35;;;;;;;;;;;;;;;4.05;100.00;97895.94;5105993;28;20287;-76
2021/05/08 06:07:01;;;;;;;;;;;;;;;4.04;100.00;97883.31;5073479;28;20437;-76
2021/05/08 06:09:28;;;;;;;;;;;;;;;4.00;100.00;97869.50;5087999;28;19924;-76
2021/05/08 06:11:55;;;;;;;;;;;;;;;3.99;100.00;97881.78;5089973;28;20011;-76
2021/05/08 06:14:26;;;;;;;;;;;;;;;4.04;100.00;97875.81;5089575;28;19947;-76
2021/05/08 06:16:56;;;;;;;;;;;;;;;4.03;100.00;97865.94;5092374;28;19924;-76
2021/05/08 06:19:23;;;;;;;;;;;;;;;4.00;100.00;97857.69;5072483;28;20402;-76
2021/05/08 06:21:50;;;;;;;;;;;;;;;4.06;100.00;97859.59;5088321;28;20019;-76
2021/05/08 06:24:16;;;;;;;;;;;;;;;4.01;100.00;97851.75;5091277;28;20389;-76
2021/05/08 06:26:45;;;;;;;;;;;;;;;3.98;100.00;97841.53;5089790;28;19955;-76
2021/05/08 06:29:12;;;;;;;;;;;;;;;3.97;100.00;97848.22;5090627;28;19920;-76
2021/05/08 06:31:39;;;;;;;;;;;;;;;3.97;100.00;97839.94;5090520;28;19924;-76
2021/05/08 06:34:05;;;;;;;;;;;;;;;4.00;100.00;97824.53;5069012;28;19920;-76
2021/05/08 06:36:32;;;;;;;;;;;;;;;4.00;100.00;97816.25;5072735;28;20372;-76
2021/05/08 06:38:59;;;;;;;;;;;;;;;3.98;100.00;97827.69;5072762;28;20380;-76
2021/05/08 06:41:25;;;;;;;;;;;;;;;3.99;100.00;97804.38;5072798;28;20001;-76
2021/05/08 06:43:52;;;;;;;;;;;;;;;3.97;100.00;97801.25;5072717;28;20026;-76
2021/05/08 06:46:18;;;;;;;;;;;;;;;4.00;100.00;97794.13;5072946;28;19954;-76
2021/05/08 06:48:45;;;;;;;;;;;;;;;4.01;100.00;97801.22;5072046;28;19920;-76
2021/05/08 06:51:12;;;;;;;;;;;;;;;4.02;100.00;97788.94;5072466;28;19920;-76
2021/05/08 06:53:40;;;;;;;;;;;;;;;4.03;100.00;97796.84;5072324;28;20011;-76
2021/05/08 06:56:07;;;;;;;;;;;;;;;4.04;100.00;97775.50;5072075;28;19929;-76
2021/05/08 06:58:34;;;;;;;;;;;;;;;4.04;100.00;97779.06;5072505;28;19924;-76
2021/05/08 07:01:01;;;;;;;;;;;;;;;4.09;100.00;97759.25;5071151;28;19970;-76
2021/05/08 07:03:28;;;;;;;;;;;;;;;4.08;100.00;97745.84;5071270;28;19970;-76
2021/05/08 07:05:54;;;;;;;;;;;;;;;4.09;100.00;97731.63;5070710;28;20383;-76
2021/05/08 07:08:21;;;;;;;;;;;;;;;4.11;100.00;97729.22;5072285;28;20376;-76
2021/05/08 07:10:48;;;;;;;;;;;;;;;4.09;100.00;97726.09;5071226;28;19920;-76
2021/05/08 07:13:15;;;;;;;;;;;;;;;4.08;100.00;97712.69;5072206;28;19920;-76
2021/05/08 07:15:51;;;;;;;;;;;;;;;4.04;100.00;97698.94;5072346;28;19920;-75
2021/05/08 07:18:18;;;;;;;;;;;;;;;4.02;100.00;97687.50;5072194;28;19921;-76
2021/05/08 07:20:44;;;;;;;;;;;;;;;4.01;100.00;97688.69;5071845;28;20450;-76
2021/05/08 07:23:11;;;;;;;;;;;;;;;4.00;100.00;97678.81;5072180;28;20281;-75
2021/05/08 07:25:38;;;;;;;;;;;;;;;3.98;100.00;97680.44;5072170;28;20017;-75
2021/05/08 07:28:11;;;;;;;;;;;;;;;3.92;100.00;97688.41;5072304;28;20010;-75
2021/05/08 07:30:39;;;;;;;;;;;;;;;3.93;100.00;97684.44;5054040;28;19924;-75
2021/05/08 07:33:06;;;;;;;;;;;;;;;3.92;100.00;97676.56;5085534;28;19920;-75
2021/05/08 07:35:33;;;;;;;;;;;;;;;3.92;100.00;97693.94;5086420;28;19924;-75
2021/05/08 07:38:00;;;;;;;;;;;;;;;3.95;100.00;97682.06;5090001;28;19930;-75
2021/05/08 07:40:30;;;;;;;;;;;;;;;3.92;100.00;97669.06;5089190;28;19926;-75
2021/05/08 07:42:57;;;;;;;;;;;;;;;3.93;100.00;97684.44;5082749;28;19921;-75
2021/05/08 07:45:25;;;;;;;;;;;;;;;3.96;100.00;97667.03;5071938;28;19999;-75
2021/05/08 07:47:52;;;;;;;;;;;;;;;3.98;100.00;97667.41;5071853;28;20272;-75
2021/05/08 07:50:19;;;;;;;;;;;;;;;3.99;100.00;97659.88;5072762;28;19925;-75
2021/05/08 07:52:46;;;;;;;;;;;;;;;3.98;100.00;97670.19;5069539;28;19954;-75
2021/05/08 07:55:13;;;;;;;;;;;;;;;4.03;100.00;97653.13;5048680;28;20423;-75
2021/05/08 07:57:40;;;;;;;;;;;;;;;4.08;100.00;97646.34;5071306;28;19920;-75
2021/05/08 08:00:07;;;;;;;;;;;;;;;4.11;100.00;97646.31;5082035;28;19927;-75
2021/05/08 08:02:35;;;;;;;;;;;;;;;4.08;100.00;97640.81;5072627;28;19927;-75
2021/05/08 08:05:03;;;;;;;;;;;;;;;4.21;100.00;97637.09;5070591;28;19932;-75
2021/05/08 08:07:30;;;;;;;;;;;;;;;4.06;100.00;97637.72;5071959;28;19999;-75
2021/05/08 08:09:56;;;;;;;;;;;;;;;4.13;100.00;97632.06;5072232;28;19920;-75
2021/05/08 08:12:23;;;;;;;;;;;;;;;4.07;100.00;97629.00;5072509;28;19935;-77
2021/05/08 08:14:51;;;;;;;;;;;;;;;4.06;100.00;97626.66;5072576;28;20375;-76
2021/05/08 08:17:18;;;;;;;;;;;;;;;4.03;100.00;97628.25;5091101;28;19951;-76
2021/05/08 08:19:50;;;;;;;;;;;;;;;4.11;100.00;97635.25;5091864;28;20379;-75
2021/05/08 08:22:17;;;;;;;;;;;;;;;4.13;100.00;97613.53;5083564;28;19967;-75
2021/05/08 08:24:44;;;;;;;;;;;;;;;4.15;100.00;97618.63;5083397;28;19993;-75
2021/05/08 08:27:11;;;;;;;;;;;;;;;4.14;100.00;97612.31;5071053;28;19920;-75
2021/05/08 08:29:37;;;;;;;;;;;;;;;4.15;100.00;97619.41;5074045;28;19920;-76
2021/05/08 08:32:05;;;;;;;;;;;;;;;4.15;100.00;97616.63;5081467;28;19943;-76
2021/05/08 08:34:31;;;;;;;;;;;;;;;4.18;100.00;97615.03;5093529;28;19920;-75
2021/05/08 08:36:58;;;;;;;;;;;;;;;4.30;100.00;97618.00;5087793;28;19920;-76
2021/05/08 08:39:25;;;;;;;;;;;;;;;4.25;100.00;97620.47;5076132;28;20249;-76
2021/05/08 08:41:52;;;;;;;;;;;;;;;4.26;100.00;97614.50;5076086;28;19920;-75
2021/05/08 08:44:19;;;;;;;;;;;;;;;4.25;100.00;97607.44;5078853;28;19920;-76
2021/05/08 08:46:46;;;;;;;;;;;;;;;4.27;100.00;97613.31;5072883;28;20378;-75
2021/05/08 08:49:14;;;;;;;;;;;;;;;4.29;100.00;97605.38;5089255;28;19940;-76
2021/05/08 08:51:42;;;;;;;;;;;;;;;4.33;100.00;97595.03;5090806;28;19924;-75
2021/05/08 08:54:09;;;;;;;;;;;;;;;4.36;100.00;97591.44;5080450;28;20011;-75
2021/05/08 08:56:39;;;;;;;;;;;;;;;4.35;100.00;97578.03;5126778;27;19927;-75
2021/05/08 08:59:14;;;;;;;;;;;;;;;4.39;100.00;97578.78;5091182;28;20371;-75
2021/05/08 09:01:42;;;;;;;;;;;;;;;4.37;100.00;97565.38;5086352;28;20005;-75
2021/05/08 09:04:10;;;;;;;;;;;;;;;4.39;100.00;97562.19;5075554;28;19928;-75
2021/05/08 09:06:38;;;;;;;;;;;;;;;4.40;100.00;97550.72;5108039;28;19920;-77
2021/05/08 09:09:05;;;;;;;;;;;;;;;4.42;100.00;97551.09;5075469;28;19959;-77
2021/05/08 09:11:32;;;;;;;;;;;;;;;4.44;100.00;97554.19;5075263;28;19950;-77
2021/05/08 09:14:18;;;;;;;;;;;;;;;4.52;100.00;97547.34;5075666;28;19921;-77
2021/05/08 09:17:03;;;;;;;;;;;;;;;4.55;100.00;97540.19;5075125;28;19955;-77
2021/05/08 09:19:30;;;;;;;;;;;;;;;4.63;100.00;97544.41;5075695;28;19920;-78
2021/05/08 09:21:57;;;;;;;;;;;;;;;4.61;100.00;97542.06;5074117;28;19927;-78
2021/05/08 09:24:23;;;;;;;;;;;;;;;4.77;100.00;97539.41;5075447;28;20391;-78
2021/05/08 09:26:52;;;;;;;;;;;;;;;4.81;100.00;97528.28;5078830;28;19947;-79
2021/05/08 09:29:22;;;;;;;;;;;;;;;4.87;100.00;97521.06;5091220;28;20267;-78
2021/05/08 09:31:53;;;;;;;;;;;;;;;4.90;100.00;97512.72;5090601;28;20497;-79
2021/05/08 09:34:20;;;;;;;;;;;;;;;4.93;100.00;97509.09;5075077;28;20010;-78
2021/05/08 09:36:50;;;;;;;;;;;;;;;4.88;100.00;97512.34;5074988;28;19943;-78
2021/05/08 09:39:29;;;;;;;;;;;;;;;4.96;100.00;97497.19;5070474;28;19924;-78
2021/05/08 09:41:57;;;;;;;;;;;;;;;4.98;100.00;97500.28;5087843;28;19939;-79
2021/05/08 09:44:24;;;;;;;;;;;;;;;5.07;100.00;97486.66;5089592;28;20469;-79
2021/05/08 09:46:52;;;;;;;;;;;;;;;5.01;100.00;97487.59;5090780;28;19923;-79
2021/05/08 09:49:20;;;;;;;;;;;;;;;5.14;100.00;97477.44;5087349;28;20348;-79
2021/05/08 09:52:11;;;;;;;;;;;;;;;5.15;100.00;97467.94;5090595;28;19927;-79
2021/05/08 09:54:38;;;;;;;;;;;;;;;5.23;100.00;97461.03;5087668;28;19920;-78
2021/05/08 09:57:18;;;;;;;;;;;;;;;5.28;100.00;97491.81;5087824;28;19973;-79
2021/05/08 09:59:47;;;;;;;;;;;;;;;5.41;100.00;97495.50;5104113;28;19973;-79
2021/05/08 10:02:14;;;;;;;;;;;;;;;5.38;100.00;97496.34;5086576;28;20050;-78
2021/05/08 10:04:49;;;;;;;;;;;;;;;5.43;100.00;97493.09;5091159;28;19920;-79
2021/05/08 10:07:17;;;;;;;;;;;;;;;5.53;100.00;97489.28;5084767;28;19920;-78
2021/05/08 10:09:45;;;;;;;;;;;;;;;5.68;100.00;97491.78;5089484;28;20403;-78
2021/05/08 10:12:11;;;;;;;;;;;;;;;5.48;100.00;97489.03;5088575;28;19961;-79
2021/05/08 10:14:39;;;;;;;;;;;;;;;5.65;100.00;97476.75;5090505;28;19923;-78
2021/05/08 10:17:15;;;;;;;;;;;;;;;5.66;100.00;97478.34;5072175;28;19924;-78
2021/05/08 10:19:44;;;;;;;;;;;;;;;5.73;100.00;97483.72;5066473;28;19928;-79
2021/05/08 10:22:12;;;;;;;;;;;;;;;5.86;100.00;97467.25;5099424;28;19965;-79
2021/05/08 10:24:40;;;;;;;;;;;;;;;5.93;100.00;97464.31;5069625;28;20386;-79
2021/05/08 10:27:08;;;;;;;;;;;;;;;5.97;100.00;97465.03;5070060;28;19920;-79
2021/05/08 10:29:42;;;;;;;;;;;;;;;6.09;100.00;97467.88;5080406;28;19981;-78
2021/05/08 10:32:10;;;;;;;;;;;;;;;6.23;100.00;97461.22;5080173;28;19927;-79
2021/05/08 10:34:49;;;;;;;;;;;;;;;6.23;100.00;97475.88;5086837;28;20015;-79
2021/05/08 10:37:15;;;;;;;;;;;;;;;6.31;100.00;97484.78;5085141;28;19936;-79
2021/05/08 10:39:49;;;;;;;;;;;;;;;6.34;100.00;97484.72;5086240;28;19920;-79
2021/05/08 10:42:45;;;;;;;;;;;;;;;6.46;100.00;97474.91;5113802;27;19920;-78
2021/05/08 10:45:12;;;;;;;;;;;;;;;6.57;100.00;97478.22;5051417;28;19928;-79
2021/05/08 10:48:03;;;;;;;;;;;;;;;6.73;100.00;97483.72;5069956;28;19935;-78
2021/05/08 10:50:36;;;;;;;;;;;;;;;6.89;100.00;97484.47;5076544;28;20433;-78
2021/05/08 10:53:07;;;;;;;;;;;;;;;6.95;100.00;97479.19;5074044;28;19925;-78
2021/05/08 10:55:44;;;;;;;;;;;;;;;6.99;100.00;97474.31;5068836;28;19955;-78
2021/05/08 10:58:14;;;;;;;;;;;;;;;6.95;100.00;97479.19;5069264;28;19920;-78
2021/05/08 11:00:52;;;;;;;;;;;;;;;6.98;100.00;97479.09;5070055;28;19920;-78
2021/05/08 11:03:20;;;;;;;;;;;;;;;7.05;100.00;97478.13;5071650;28;19921;-78
2021/05/08 11:05:53;;;;;;;;;;;;;;;7.10;100.00;97472.03;5070780;28;20003;-79
2021/05/08 11:08:25;;;;;;;;;;;;;;;7.26;100.00;97471.97;5091811;28;20516;-79
2021/05/08 11:10:59;;;;;;;;;;;;;;;7.20;100.00;97471.75;5115040;27;19920;-78
2021/05/08 11:13:27;;;;;;;;;;;;;;;7.12;100.00;97475.94;5092008;28;20417;-78
2021/05/08 11:15:54;;;;;;;;;;;;;;;7.08;100.00;97466.13;5093660;28;19981;-78
2021/05/08 11:18:32;;;;;;;;;;;;;;;7.18;100.00;97470.59;5093434;28;19926;-79
2021/05/08 11:20:59;;;;;;;;;;;;;;;7.26;100.00;97471.97;5087017;28;19923;-78
2021/05/08 11:23:26;;;;;;;;;;;;;;;7.30;100.00;97459.53;5093667;28;19932;-79
2021/05/08 11:25:52;;;;;;;;;;;;;;;7.32;100.00;97464.66;5100110;28;19962;-79
2021/05/08 11:28:19;;;;;;;;;;;;;;;7.44;100.00;97469.47;5073219;28;19935;-79
2021/05/08 11:30:52;;;;;;;;;;;;;;;7.53;100.00;97464.03;5093705;28;19927;-78
2021/05/08 11:33:20;;;;;;;;;;;;;;;7.50;100.00;97473.25;5087912;28;19986;-78
2021/05/08 11:36:00;;;;;;;;;;;;;;;7.52;100.00;97461.72;5093583;28;20496;-77
2021/05/08 11:38:26;;;;;;;;;;;;;;;7.51;100.00;97455.38;5077423;28;19921;-77
2021/05/08 11:40:53;;;;;;;;;;;;;;;7.49;100.00;97457.03;5081525;28;20350;-77
2021/05/08 11:43:23;;;;;;;;;;;;;;;7.55;100.00;97455.25;5090965;28;20046;-77
2021/05/08 11:45:52;;;;;;;;;;;;;;;7.55;100.00;97449.72;5087773;28;20241;-77
2021/05/08 11:48:18;;;;;;;;;;;;;;;7.65;100.00;97435.50;5092231;28;19920;-79
2021/05/08 11:50:48;;;;;;;;;;;;;;;7.54;100.00;97448.94;5074461;28;19939;-79
2021/05/08 11:53:16;;;;;;;;;;;;;;;7.64;100.00;97445.06;5078210;28;19920;-79
2021/05/08 11:55:52;;;;;;;;;;;;;;;7.79;100.00;97437.84;5077860;28;20413;-79
2021/05/08 11:58:25;;;;;;;;;;;;;;;7.89;100.00;97445.06;5074702;28;20304;-79
2021/05/08 12:00:53;;;;;;;;;;;;;;;7.95;100.00;97446.06;5071533;28;19931;-79
2021/05/08 12:03:19;;;;;;;;;;;;;;;7.94;100.00;97444.53;5070954;28;19947;-79
2021/05/08 12:05:47;;;;;;;;;;;;;;;7.87;100.00;97444.75;5058096;28;19921;-79
2021/05/08 12:08:15;;;;;;;;;;;;;;;7.87;100.00;97444.75;5058660;28;19960;-79
2021/05/08 12:10:42;;;;;;;;;;;;;;;7.87;100.00;97433.63;5076545;28;20422;-80
2021/05/08 12:13:10;;;;;;;;;;;;;;;7.97;100.00;97431.72;5108899;28;19998;-79
2021/05/08 12:15:36;;;;;;;;;;;;;;;7.96;100.00;97430.97;5109342;28;19921;-79
2021/05/08 12:18:04;;;;;;;;;;;;;;;8.03;100.00;97413.25;5076383;28;19990;-79
2021/05/08 12:20:32;;;;;;;;;;;;;;;8.10;100.00;97430.53;5076716;28;20018;-79
2021/05/08 12:23:24;;;;;;;;;;;;;;;8.24;100.00;97412.63;5076573;28;20407;-78
2021/05/08 12:26:07;;;;;;;;;;;;;;;8.37;100.00;97416.16;5093512;28;19927;-79
2021/05/08 12:28:35;;;;;;;;;;;;;;;8.27;100.00;97411.72;5095436;28;19924;-79
2021/05/08 12:31:20;;;;;;;;;;;;;;;8.21;100.00;97419.81;5095359;28;19920;-79
2021/05/08 12:36:40;;;;;;;;;;;;;;;8.32;100.00;97411.94;5089799;28;20006;-79
2021/05/08 12:39:25;;;;;;;;;;;;;;;8.28;100.00;97421.63;5075846;28;19954;-79
2021/05/08 12:41:53;;;;;;;;;;;;;;;8.40;100.00;97426.38;5099725;28;19924;-79
2021/05/08 12:44:27;;;;;;;;;;;;;;;8.33;100.00;97421.81;5060935;28;19924;-79
2021/05/08 12:47:02;;;;;;;;;;;;;;;8.40;100.00;97426.38;5088078;28;19923;-79
2021/05/08 12:49:29;;;;;;;;;;;;;;;8.45;100.00;97423.81;5068871;28;19920;-79
2021/05/08 12:51:56;;;;;;;;;;;;;;;8.42;100.00;97419.13;5096414;28;19920;-79
2021/05/08 12:54:23;;;;;;;;;;;;;;;8.49;100.00;97413.34;5095918;28;19927;-79
2021/05/08 12:56:51;;;;;;;;;;;;;;;8.50;100.00;97420.47;5096205;28;19927;-79
2021/05/08 12:59:24;;;;;;;;;;;;;;;8.59;100.00;97422.56;5096191;28;20057;-79